Frederick, Pennsylvania
Current Conditions -  °F | °C
As of 2:54 AM on Friday 19 Dec 2014 (Local Time) from KPTW Reporting Station
Overcast Overcast  
Wind Chill: 28°   Ceiling: 3100
Heat Index: 34°   Visibility: 10mi
Dew Point: 25°   Wind: 7mph
Humidity: 70%   Direction: 280°W
Pressure: 30.04"   Gusts: NA
Location:  40.33°N, 75.56°W
Report Text: KPTW 190754Z AUTO 28006KT 10SM OVC031 01/M04 A3004 RMK AO2 SLP173 T00111039
Loading
Personal Weather Stations






























Interactive Weather Map New forecast layout! Learn more

10-Day Weather Forecast

Advertisements
Track Severe Weather on mobile